Time;durP1;ratioP1;P1;durP2;ratioP2;P2;SDS_P1;SDS_P2;PMS_P1;PMS_P2;Temp;Humidity;BMP_temperature;BMP_pressure;BME280_temperature;BME280_humidity;BME280_pressure;Samples;Min_cycle;Max_cycle;Signal;HPM_P1;HPM_P2
2023/01/17 01:35:00;;;;;;;4.50;2.20;;;4.50;99.90;;;;;;5034567;28;20405;-71
2023/01/17 01:37:27;;;;;;;1.87;1.43;;;4.60;99.90;;;;;;5034436;28;20458;-71
2023/01/17 01:39:54;;;;;;;2.90;1.53;;;4.50;99.90;;;;;;5034864;28;20451;-71
2023/01/17 01:42:22;;;;;;;2.47;1.40;;;4.50;99.90;;;;;;5034434;28;20419;-71
2023/01/17 01:44:50;;;;;;;1.67;1.57;;;4.50;99.90;;;;;;5034936;28;20561;-73
2023/01/17 01:47:23;;;;;;;2.20;1.67;;;4.40;99.90;;;;;;5034853;28;20475;-72
2023/01/17 01:49:51;;;;;;;1.30;1.20;;;4.40;99.90;;;;;;5034179;28;20520;-72
2023/01/17 01:52:25;;;;;;;2.90;1.50;;;4.40;99.90;;;;;;5034665;28;20475;-72
2023/01/17 01:54:57;;;;;;;2.40;1.83;;;4.40;99.90;;;;;;5035054;28;20516;-71
2023/01/17 01:57:54;;;;;;;1.83;1.53;;;4.30;99.90;;;;;;5034519;28;20566;-72
2023/01/17 02:00:25;;;;;;;1.37;1.27;;;4.30;99.90;;;;;;5039120;28;20461;-72
2023/01/17 02:02:55;;;;;;;2.00;1.20;;;4.20;99.90;;;;;;5036127;28;20815;-73
2023/01/17 02:05:25;;;;;;;2.00;1.70;;;4.30;99.90;;;;;;5035289;28;20509;-73
2023/01/17 02:08:06;;;;;;;2.50;1.20;;;4.30;99.90;;;;;;5034846;28;20561;-73
2023/01/17 02:10:34;;;;;;;1.53;1.20;;;4.30;99.90;;;;;;5034391;28;20429;-73
2023/01/17 02:13:03;;;;;;;1.53;1.43;;;4.40;99.90;;;;;;5034767;28;20533;-72
2023/01/17 02:15:33;;;;;;;1.77;1.53;;;4.40;99.90;;;;;;5034337;28;20440;-73
2023/01/17 02:18:13;;;;;;;1.70;1.53;;;4.40;99.90;;;;;;5034191;28;20543;-74
2023/01/17 02:20:58;;;;;;;1.00;0.80;;;4.30;99.90;;;;;;5034341;28;20439;-73
2023/01/17 02:24:08;;;;;;;1.20;0.97;;;4.20;99.90;;;;;;5033255;28;20506;-72
2023/01/17 02:27:08;;;;;;;1.00;0.90;;;4.00;99.90;;;;;;4973118;28;20947;-72
2023/01/17 02:30:05;;;;;;;1.00;0.80;;;3.70;99.90;;;;;;4972695;28;20523;-73
2023/01/17 02:32:52;;;;;;;1.40;0.80;;;3.40;99.90;;;;;;4972409;28;20855;-72
2023/01/17 02:35:28;;;;;;;0.90;0.70;;;3.20;99.90;;;;;;4944442;28;20789;-74
2023/01/17 02:38:01;;;;;;;3.63;1.53;;;3.00;99.90;;;;;;4972935;28;20467;-73
2023/01/17 02:40:34;;;;;;;0.90;0.70;;;3.00;99.90;;;;;;4977387;28;20598;-72
2023/01/17 02:43:06;;;;;;;0.90;0.70;;;2.90;99.90;;;;;;4973198;28;20453;-72
2023/01/17 02:45:39;;;;;;;1.00;0.90;;;3.00;99.90;;;;;;4972987;28;20446;-73
2023/01/17 02:48:10;;;;;;;1.00;0.73;;;2.90;99.90;;;;;;4972533;28;20864;-73
2023/01/17 02:50:51;;;;;;;1.77;1.20;;;3.00;99.90;;;;;;4972687;28;21094;-73
2023/01/17 02:53:33;;;;;;;2.20;1.50;;;3.00;99.90;;;;;;4972668;28;20438;-74
2023/01/17 02:56:09;;;;;;;2.60;1.30;;;3.00;99.90;;;;;;4972482;28;20852;-72
2023/01/17 02:58:50;;;;;;;1.70;1.30;;;3.00;99.90;;;;;;4972332;28;21009;-74
2023/01/17 03:01:28;;;;;;;0.90;0.70;;;2.80;99.90;;;;;;4972879;28;20432;-73
2023/01/17 03:04:06;;;;;;;1.00;0.77;;;2.90;99.90;;;;;;5017358;28;20460;-73
2023/01/17 03:06:39;;;;;;;0.90;0.70;;;2.80;99.90;;;;;;5033716;28;20436;-72
2023/01/17 03:09:07;;;;;;;1.00;0.80;;;2.80;99.90;;;;;;5014830;28;20565;-72
2023/01/17 03:11:34;;;;;;;1.30;0.73;;;2.70;99.90;;;;;;5033429;28;20423;-73
2023/01/17 03:14:02;;;;;;;0.90;0.70;;;2.60;99.90;;;;;;5033396;28;20528;-72
2023/01/17 03:16:32;;;;;;;1.00;0.90;;;2.60;99.90;;;;;;5033471;28;20996;-73
2023/01/17 03:19:01;;;;;;;1.10;0.80;;;2.50;99.90;;;;;;5038317;28;20568;-73
2023/01/17 03:21:29;;;;;;;1.00;0.90;;;2.30;99.90;;;;;;5037696;28;20457;-73
2023/01/17 03:23:56;;;;;;;0.90;0.70;;;2.30;99.90;;;;;;5033943;28;20499;-71
2023/01/17 03:26:25;;;;;;;1.00;0.70;;;2.20;99.90;;;;;;5033222;28;20568;-73
2023/01/17 03:28:52;;;;;;;1.10;0.80;;;2.10;99.90;;;;;;5033054;28;20477;-73
2023/01/17 03:31:19;;;;;;;1.10;0.90;;;2.10;99.90;;;;;;5032482;28;20424;-74
2023/01/17 03:33:47;;;;;;;1.30;1.00;;;2.00;99.90;;;;;;5032539;28;20984;-74
2023/01/17 03:36:15;;;;;;;3.10;0.93;;;2.00;99.90;;;;;;5032810;28;20441;-72
2023/01/17 03:38:43;;;;;;;1.27;1.17;;;1.90;99.90;;;;;;5033045;28;20819;-72
2023/01/17 03:41:10;;;;;;;1.10;1.00;;;1.90;99.90;;;;;;5032750;28;20464;-72
2023/01/17 03:43:37;;;;;;;1.00;0.80;;;2.00;99.90;;;;;;5032715;28;20485;-73
2023/01/17 03:46:06;;;;;;;1.47;1.37;;;2.10;99.90;;;;;;5032291;28;20517;-71
2023/01/17 03:48:33;;;;;;;1.10;1.00;;;2.10;99.90;;;;;;5032212;28;20587;-71
2023/01/17 03:51:00;;;;;;;3.43;1.70;;;2.00;99.90;;;;;;5032224;28;20520;-71
2023/01/17 03:53:29;;;;;;;0.90;0.67;;;2.10;99.90;;;;;;5032197;28;20912;-71
2023/01/17 03:55:56;;;;;;;1.33;1.00;;;2.20;99.90;;;;;;5034131;28;20456;-73
2023/01/17 03:58:23;;;;;;;2.40;1.53;;;2.20;99.90;;;;;;5033212;28;20472;-73
2023/01/17 04:00:50;;;;;;;1.30;1.20;;;2.10;99.90;;;;;;5032565;28;20540;-73
2023/01/17 04:03:19;;;;;;;1.40;0.90;;;2.10;99.90;;;;;;5032148;28;20453;-72
2023/01/17 04:05:46;;;;;;;2.13;1.90;;;2.10;99.90;;;;;;5031941;28;20512;-74
2023/01/17 04:08:13;;;;;;;1.77;1.67;;;2.10;99.90;;;;;;5031596;28;20471;-72
2023/01/17 04:10:49;;;;;;;1.80;1.47;;;2.10;99.90;;;;;;5031682;28;20459;-71
2023/01/17 04:13:16;;;;;;;1.20;1.03;;;2.20;99.90;;;;;;5032031;28;20425;-73
2023/01/17 04:15:44;;;;;;;1.60;1.10;;;2.20;99.90;;;;;;5031886;28;20445;-72
2023/01/17 04:18:13;;;;;;;2.07;1.50;;;2.30;99.90;;;;;;5032999;28;20473;-73
2023/01/17 04:20:41;;;;;;;1.97;1.50;;;2.30;99.90;;;;;;5033213;28;20556;-73
2023/01/17 04:23:08;;;;;;;1.70;1.60;;;2.10;99.90;;;;;;5033242;28;20531;-72
2023/01/17 04:25:35;;;;;;;2.90;1.80;;;2.10;99.90;;;;;;5031239;28;20480;-73
2023/01/17 04:28:04;;;;;;;1.30;1.20;;;2.10;99.90;;;;;;4997140;28;20556;-72
2023/01/17 04:30:32;;;;;;;2.37;2.17;;;2.10;99.90;;;;;;5032130;28;20917;-73
2023/01/17 04:32:59;;;;;;;1.40;1.10;;;2.20;99.90;;;;;;5032792;28;20539;-73
2023/01/17 04:35:26;;;;;;;3.50;1.93;;;2.20;99.90;;;;;;5036008;28;20795;-72
2023/01/17 04:37:54;;;;;;;1.67;1.57;;;2.30;99.90;;;;;;5034362;28;20459;-73
2023/01/17 04:40:20;;;;;;;1.53;1.00;;;2.50;99.90;;;;;;5034498;28;20445;-74
2023/01/17 04:42:48;;;;;;;1.63;1.53;;;2.50;99.90;;;;;;5032211;28;20452;-72
2023/01/17 04:45:17;;;;;;;6.03;3.00;;;2.60;99.90;;;;;;5033286;28;20477;-72
2023/01/17 04:47:43;;;;;;;2.73;2.03;;;2.60;99.90;;;;;;5036117;28;20563;-72
2023/01/17 04:50:13;;;;;;;4.03;2.07;;;2.60;99.90;;;;;;5035495;28;20981;-73
2023/01/17 04:52:40;;;;;;;8.00;3.10;;;2.80;99.90;;;;;;5036394;28;20874;-75
2023/01/17 04:55:08;;;;;;;6.63;4.00;;;2.90;99.90;;;;;;5035628;28;20575;-73
2023/01/17 04:57:36;;;;;;;7.87;3.80;;;3.00;99.90;;;;;;5035609;28;20576;-73
2023/01/17 05:00:04;;;;;;;6.00;4.30;;;2.90;99.90;;;;;;5035993;28;20451;-73
2023/01/17 05:02:32;;;;;;;6.33;2.83;;;2.90;99.90;;;;;;5035508;28;20624;-72
2023/01/17 05:05:00;;;;;;;10.83;5.37;;;3.00;99.90;;;;;;5035559;28;20457;-73
2023/01/17 05:07:27;;;;;;;4.83;3.40;;;3.10;99.90;;;;;;5035013;28;20559;-73
2023/01/17 05:09:53;;;;;;;5.33;2.73;;;3.10;99.90;;;;;;5035479;28;20452;-72
2023/01/17 05:12:21;;;;;;;7.30;4.50;;;3.10;99.90;;;;;;5036844;28;20453;-73
2023/01/17 05:14:49;;;;;;;5.43;2.63;;;3.10;99.90;;;;;;5036731;28;20821;-72
2023/01/17 05:17:16;;;;;;;2.00;1.80;;;3.00;99.90;;;;;;5035774;28;20526;-73
2023/01/17 05:19:45;;;;;;;7.23;3.87;;;3.00;99.90;;;;;;5035200;28;20484;-73
2023/01/17 05:22:14;;;;;;;6.73;3.30;;;3.00;99.90;;;;;;5034935;28;20952;-72
2023/01/17 05:24:43;;;;;;;3.37;3.10;;;3.00;99.90;;;;;;5034979;28;20419;-71
2023/01/17 05:27:11;;;;;;;5.77;2.30;;;3.00;99.90;;;;;;5034550;28;20481;-73
2023/01/17 05:29:39;;;;;;;4.40;4.00;;;3.00;99.90;;;;;;5035202;28;20460;-73
2023/01/17 05:32:07;;;;;;;2.70;2.50;;;3.00;99.90;;;;;;5035110;28;20842;-74
2023/01/17 05:34:34;;;;;;;2.90;2.60;;;3.00;99.90;;;;;;5034979;28;20456;-73
2023/01/17 05:37:03;;;;;;;3.57;2.30;;;3.00;99.90;;;;;;5034184;28;20796;-72
2023/01/17 05:39:30;;;;;;;3.47;2.30;;;3.00;99.90;;;;;;5034729;28;20510;-73
2023/01/17 05:41:59;;;;;;;4.77;3.43;;;3.00;99.90;;;;;;5034912;28;20893;-73
2023/01/17 05:44:27;;;;;;;4.10;2.60;;;3.10;99.90;;;;;;5034922;28;20480;-73
2023/01/17 05:46:54;;;;;;;4.07;2.83;;;3.00;99.90;;;;;;5034347;28;20487;-72
2023/01/17 05:49:22;;;;;;;2.50;2.20;;;3.00;99.90;;;;;;5036116;28;20459;-73
2023/01/17 05:51:48;;;;;;;4.60;2.37;;;3.00;99.90;;;;;;5035533;28;20971;-73
2023/01/17 05:54:17;;;;;;;4.40;3.10;;;2.90;99.90;;;;;;5034433;28;20428;-73
2023/01/17 05:56:44;;;;;;;7.37;3.23;;;2.80;99.90;;;;;;5036469;28;20489;-73
2023/01/17 05:59:11;;;;;;;3.73;2.83;;;2.90;99.90;;;;;;5034129;28;20464;-73
2023/01/17 06:01:38;;;;;;;4.57;2.50;;;3.10;99.90;;;;;;5034146;28;20491;-73
2023/01/17 06:04:05;;;;;;;3.87;2.70;;;3.00;99.90;;;;;;5034668;28;20485;-73
2023/01/17 06:06:32;;;;;;;3.97;2.37;;;3.00;99.90;;;;;;5033536;28;20542;-73
2023/01/17 06:08:59;;;;;;;6.03;3.40;;;2.90;99.90;;;;;;5033980;28;20475;-72
2023/01/17 06:11:28;;;;;;;5.50;2.90;;;2.80;99.90;;;;;;5033822;28;20821;-73
2023/01/17 06:13:55;;;;;;;2.80;1.93;;;2.90;99.90;;;;;;5032936;28;20535;-72
2023/01/17 06:16:22;;;;;;;3.50;3.20;;;2.90;99.90;;;;;;5034311;28;20863;-73
2023/01/17 06:18:48;;;;;;;6.17;3.00;;;2.80;99.90;;;;;;5033841;28;20818;-75
2023/01/17 06:21:15;;;;;;;7.63;3.20;;;2.90;99.90;;;;;;5034302;28;20424;-74
2023/01/17 06:23:42;;;;;;;5.13;3.07;;;2.90;99.90;;;;;;5034241;28;20453;-74
2023/01/17 06:26:10;;;;;;;5.60;2.50;;;3.00;99.90;;;;;;5034051;28;20858;-71
2023/01/17 06:28:38;;;;;;;5.23;3.03;;;3.00;99.90;;;;;;5038622;28;20470;-71
2023/01/17 06:31:07;;;;;;;3.10;2.50;;;3.00;99.90;;;;;;5035223;28;20532;-71
2023/01/17 06:33:37;;;;;;;2.93;2.37;;;2.90;99.90;;;;;;5033417;28;21007;-71
2023/01/17 06:36:04;;;;;;;2.67;2.40;;;3.00;99.90;;;;;;5034222;28;20560;-71
2023/01/17 06:38:32;;;;;;;4.03;2.73;;;3.00;99.90;;;;;;5033604;28;20878;-71
2023/01/17 06:40:59;;;;;;;4.17;3.27;;;3.10;99.90;;;;;;5034232;28;20523;-72
2023/01/17 06:43:31;;;;;;;4.33;3.03;;;3.20;99.90;;;;;;5034107;28;20824;-71
2023/01/17 06:45:59;;;;;;;5.33;3.33;;;3.20;99.90;;;;;;5033839;28;20469;-71
2023/01/17 06:48:26;;;;;;;5.67;4.30;;;3.30;99.90;;;;;;5033222;28;20530;-72
2023/01/17 06:50:53;;;;;;;17.40;2.67;;;3.30;99.90;;;;;;5033655;28;20547;-71
2023/01/17 06:53:21;;;;;;;9.33;4.33;;;3.00;99.90;;;;;;5033538;28;20998;-72
2023/01/17 06:55:48;;;;;;;4.70;2.83;;;3.10;99.90;;;;;;5031892;28;20478;-71
2023/01/17 06:58:15;;;;;;;3.60;3.30;;;3.00;99.90;;;;;;5033821;28;20472;-72
2023/01/17 07:00:42;;;;;;;6.30;3.23;;;3.00;99.90;;;;;;5032942;28;20536;-72
2023/01/17 07:03:17;;;;;;;8.67;4.07;;;3.00;99.90;;;;;;5033185;28;20579;-71
2023/01/17 07:05:44;;;;;;;2.50;1.67;;;3.00;99.90;;;;;;5032693;28;20512;-72
2023/01/17 07:08:11;;;;;;;4.33;3.27;;;3.00;99.90;;;;;;5036867;28;20841;-72
2023/01/17 07:10:38;;;;;;;2.63;2.33;;;3.00;99.90;;;;;;5034796;28;20450;-73
2023/01/17 07:13:05;;;;;;;8.90;3.73;;;3.00;99.90;;;;;;5033309;28;20456;-70
2023/01/17 07:15:34;;;;;;;10.23;3.53;;;3.00;99.90;;;;;;5036738;28;20408;-71
2023/01/17 07:18:01;;;;;;;7.97;3.53;;;3.00;99.90;;;;;;5032625;28;20451;-71
2023/01/17 07:20:31;;;;;;;2.07;1.90;;;3.00;99.90;;;;;;5032765;28;20797;-72
2023/01/17 07:22:58;;;;;;;3.00;2.70;;;3.00;99.90;;;;;;5032681;28;20485;-71
2023/01/17 07:25:26;;;;;;;2.23;2.03;;;3.00;99.90;;;;;;5032897;28;20460;-71
2023/01/17 07:27:53;;;;;;;5.17;2.80;;;3.00;99.90;;;;;;5032408;28;20550;-72
2023/01/17 07:30:21;;;;;;;4.30;2.33;;;3.00;99.90;;;;;;5032895;28;20427;-71
2023/01/17 07:32:52;;;;;;;4.20;2.80;;;3.10;99.90;;;;;;5032921;28;20453;-71
2023/01/17 07:35:21;;;;;;;7.80;4.60;;;3.00;99.90;;;;;;5032889;28;20460;-74
2023/01/17 07:37:50;;;;;;;9.43;4.20;;;3.10;99.90;;;;;;5032339;28;20536;-71
2023/01/17 07:40:18;;;;;;;7.87;4.00;;;3.20;99.90;;;;;;5032680;28;20952;-71
2023/01/17 07:42:46;;;;;;;7.40;3.67;;;3.20;99.90;;;;;;5032586;28;20452;-71
2023/01/17 07:45:14;;;;;;;7.43;3.43;;;3.20;99.90;;;;;;5032733;28;20547;-72
2023/01/17 07:47:41;;;;;;;10.93;6.10;;;3.10;99.90;;;;;;5001878;28;20489;-73
2023/01/17 07:50:10;;;;;;;7.93;4.80;;;3.10;99.90;;;;;;5034483;28;20495;-73
2023/01/17 07:52:37;;;;;;;10.20;5.93;;;3.10;99.90;;;;;;5032556;28;20424;-72
2023/01/17 07:55:06;;;;;;;5.17;3.27;;;3.20;99.90;;;;;;5032870;28;20457;-72
2023/01/17 07:57:34;;;;;;;8.00;4.20;;;3.20;99.90;;;;;;5031804;28;20447;-73
2023/01/17 08:00:01;;;;;;;5.63;3.70;;;3.30;99.90;;;;;;5032209;28;20420;-74
2023/01/17 08:02:28;;;;;;;5.60;4.53;;;3.30;99.90;;;;;;5032298;28;20552;-73
2023/01/17 08:04:55;;;;;;;5.90;3.67;;;3.30;99.90;;;;;;5031942;28;21014;-71
2023/01/17 08:07:23;;;;;;;7.50;4.10;;;3.30;99.90;;;;;;5031705;28;20489;-71
2023/01/17 08:09:50;;;;;;;8.87;5.17;;;3.30;99.90;;;;;;5032287;28;20901;-71
2023/01/17 08:12:18;;;;;;;11.87;4.90;;;3.40;99.90;;;;;;5032323;28;20950;-71
2023/01/17 08:14:45;;;;;;;8.63;6.47;;;3.50;99.90;;;;;;5032165;28;20438;-71
2023/01/17 08:17:14;;;;;;;7.23;3.90;;;3.50;99.90;;;;;;5031819;28;20537;-71
2023/01/17 08:19:42;;;;;;;4.03;2.80;;;3.50;99.90;;;;;;5032119;28;20531;-71
2023/01/17 08:22:10;;;;;;;25.73;4.80;;;3.60;99.90;;;;;;5031819;28;21018;-71
2023/01/17 08:24:37;;;;;;;7.57;6.33;;;3.40;99.90;;;;;;5032232;28;20464;-71
2023/01/17 08:27:04;;;;;;;21.63;6.23;;;3.40;99.90;;;;;;5033744;28;20447;-71
2023/01/17 08:29:33;;;;;;;10.30;4.53;;;3.50;99.90;;;;;;5034813;28;20488;-71
2023/01/17 08:32:00;;;;;;;9.40;4.87;;;3.30;99.90;;;;;;5033141;28;20510;-71
2023/01/17 08:34:27;;;;;;;5.93;5.33;;;3.40;99.90;;;;;;5035296;28;20423;-71
2023/01/17 08:36:54;;;;;;;8.73;5.03;;;3.40;99.90;;;;;;5031961;28;20884;-72
2023/01/17 08:39:21;;;;;;;6.27;4.50;;;3.60;99.90;;;;;;5031484;28;20453;-72
2023/01/17 08:41:48;;;;;;;5.47;3.87;;;3.70;99.90;;;;;;5031830;28;20452;-72
2023/01/17 08:44:15;;;;;;;11.17;5.40;;;3.80;99.90;;;;;;5032036;28;20966;-72
2023/01/17 08:46:44;;;;;;;12.40;5.37;;;3.80;99.90;;;;;;5031895;28;20462;-72
2023/01/17 08:49:11;;;;;;;3.80;2.83;;;3.80;99.90;;;;;;5031305;28;20465;-72
2023/01/17 08:51:38;;;;;;;8.00;3.23;;;3.90;99.90;;;;;;5031551;28;20459;-72
2023/01/17 08:54:05;;;;;;;10.37;6.47;;;3.80;99.90;;;;;;5031491;28;20455;-72
2023/01/17 08:56:32;;;;;;;22.83;4.13;;;3.80;99.90;;;;;;5031446;28;20423;-72
2023/01/17 08:59:01;;;;;;;9.40;4.90;;;3.80;99.90;;;;;;5031521;28;20539;-72
2023/01/17 09:01:28;;;;;;;8.17;4.37;;;3.90;99.90;;;;;;5031355;28;20452;-72
2023/01/17 09:03:57;;;;;;;12.63;4.93;;;3.90;99.90;;;;;;5031695;28;20531;-74
2023/01/17 09:06:24;;;;;;;9.97;4.50;;;3.70;99.90;;;;;;5032817;28;20480;-72
2023/01/17 09:08:53;;;;;;;6.67;3.00;;;3.70;99.90;;;;;;5037616;28;20446;-73
2023/01/17 09:11:20;;;;;;;7.43;4.80;;;3.70;99.90;;;;;;5031082;28;20869;-72
2023/01/17 09:13:47;;;;;;;9.53;5.47;;;3.80;99.90;;;;;;5031600;28;20745;-73
2023/01/17 09:16:14;;;;;;;17.47;5.93;;;3.80;99.90;;;;;;5031163;28;20444;-73
2023/01/17 09:18:41;;;;;;;2.03;1.83;;;3.80;99.90;;;;;;5031067;28;21014;-73
2023/01/17 09:21:15;;;;;;;9.23;7.33;;;3.70;99.90;;;;;;5031216;28;20455;-72
2023/01/17 09:23:43;;;;;;;4.13;3.10;;;3.50;99.90;;;;;;5031310;28;20471;-71
2023/01/17 09:26:17;;;;;;;4.13;3.43;;;3.60;99.90;;;;;;5031350;28;20459;-73
2023/01/17 09:28:44;;;;;;;2.30;2.10;;;3.70;99.90;;;;;;5031400;28;20499;-72
2023/01/17 09:31:12;;;;;;;2.97;2.60;;;3.60;99.90;;;;;;5031749;28;20448;-72
2023/01/17 09:33:41;;;;;;;13.37;5.37;;;3.70;99.90;;;;;;5034718;28;20976;-72
2023/01/17 09:36:09;;;;;;;8.47;4.33;;;3.80;99.90;;;;;;5035206;28;20526;-72
2023/01/17 09:38:38;;;;;;;14.43;6.20;;;3.90;99.90;;;;;;5035024;28;20519;-72
2023/01/17 09:41:26;;;;;;;12.10;6.87;;;3.90;99.90;;;;;;5034770;28;20795;-72
2023/01/17 09:43:59;;;;;;;16.70;4.60;;;4.10;99.90;;;;;;5034762;28;20461;-72
2023/01/17 09:46:30;;;;;;;7.87;6.70;;;4.30;99.90;;;;;;5035726;28;20494;-72
2023/01/17 09:49:03;;;;;;;9.63;5.57;;;4.40;99.90;;;;;;5039193;28;20999;-73
2023/01/17 09:51:31;;;;;;;6.20;3.53;;;4.50;99.90;;;;;;5040846;28;20439;-73
2023/01/17 09:54:01;;;;;;;11.27;6.30;;;4.70;99.90;;;;;;5035030;28;20420;-72
2023/01/17 09:56:32;;;;;;;12.70;4.40;;;4.50;99.90;;;;;;5034162;28;20431;-72
2023/01/17 09:59:37;;;;;;;10.73;5.80;;;4.40;99.90;;;;;;5034641;28;20552;-72
2023/01/17 10:02:18;;;;;;;6.93;5.13;;;4.30;99.90;;;;;;4973466;28;20405;-72
2023/01/17 10:04:58;;;;;;;8.37;4.40;;;4.30;99.90;;;;;;4973428;28;20477;-72
2023/01/17 10:07:36;;;;;;;4.67;4.03;;;4.50;99.90;;;;;;5013733;28;20491;-73
2023/01/17 10:10:18;;;;;;;11.77;5.73;;;5.30;99.90;;;;;;5034489;28;20507;-73
2023/01/17 10:12:53;;;;;;;5.37;3.37;;;5.90;99.90;;;;;;5034601;28;20816;-73
2023/01/17 10:15:37;;;;;;;8.40;5.03;;;6.20;99.90;;;;;;5033114;28;20545;-73
2023/01/17 10:18:29;;;;;;;12.20;4.00;;;6.10;99.90;;;;;;5034507;28;20480;-72
2023/01/17 10:21:03;;;;;;;8.83;4.93;;;6.00;99.90;;;;;;5034140;28;20524;-72
2023/01/17 10:23:52;;;;;;;6.10;2.97;;;6.60;99.90;;;;;;5034548;28;20788;-72
2023/01/17 10:26:24;;;;;;;6.37;5.23;;;7.00;99.90;;;;;;5036115;28;20428;-74
2023/01/17 10:28:53;;;;;;;12.17;4.60;;;6.80;99.90;;;;;;5040951;28;20517;-73
2023/01/17 10:31:24;;;;;;;5.90;4.70;;;6.60;99.90;;;;;;5034625;28;20465;-73
2023/01/17 10:33:53;;;;;;;11.43;3.90;;;6.40;99.90;;;;;;5034540;28;20488;-72
2023/01/17 10:36:21;;;;;;;12.37;6.73;;;6.10;99.90;;;;;;5034719;28;20453;-72
2023/01/17 10:38:52;;;;;;;9.77;5.70;;;6.00;99.90;;;;;;5033938;28;20479;-73
2023/01/17 10:41:25;;;;;;;9.90;5.33;;;6.10;99.90;;;;;;5034602;28;20416;-73
2023/01/17 10:44:06;;;;;;;10.80;6.13;;;6.10;99.90;;;;;;5033306;28;20423;-72
2023/01/17 10:46:37;;;;;;;6.23;4.37;;;6.10;99.90;;;;;;5033654;28;20949;-73
2023/01/17 10:49:07;;;;;;;11.40;4.03;;;6.00;99.90;;;;;;5033586;28;20463;-73
2023/01/17 10:52:00;;;;;;;6.20;3.73;;;6.00;99.90;;;;;;5034012;28;20502;-74
2023/01/17 10:54:48;;;;;;;4.70;3.47;;;6.20;99.90;;;;;;5033526;28;20519;-73
2023/01/17 10:57:21;;;;;;;5.33;4.13;;;6.10;99.90;;;;;;5031128;28;20978;-73
2023/01/17 10:59:48;;;;;;;11.13;5.43;;;6.00;99.90;;;;;;5033538;28;20490;-73
2023/01/17 11:02:21;;;;;;;8.23;4.90;;;5.90;99.90;;;;;;5033384;28;20532;-72
2023/01/17 11:04:53;;;;;;;15.23;5.80;;;5.90;99.90;;;;;;5033389;28;20934;-72
2023/01/17 11:07:23;;;;;;;9.63;4.87;;;5.80;99.90;;;;;;5037555;28;20809;-72
2023/01/17 11:09:52;;;;;;;9.10;6.40;;;5.70;99.90;;;;;;5037924;28;20552;-72
2023/01/17 11:12:29;;;;;;;8.10;4.37;;;5.70;99.90;;;;;;5032634;28;20928;-72
2023/01/17 11:15:03;;;;;;;7.10;5.53;;;5.60;99.90;;;;;;5032880;28;20408;-72
2023/01/17 11:17:31;;;;;;;8.00;5.43;;;6.30;99.90;;;;;;5033266;28;20461;-72
2023/01/17 11:20:32;;;;;;;12.07;5.63;;;7.20;99.90;;;;;;5033138;28;20455;-72
2023/01/17 11:23:11;;;;;;;9.53;7.07;;;8.20;99.90;;;;;;5033477;28;20861;-74
2023/01/17 11:25:38;;;;;;;11.73;5.03;;;9.20;99.90;;;;;;5033506;28;20432;-73
2023/01/17 11:28:17;;;;;;;10.30;4.60;;;9.30;99.90;;;;;;5033106;28;20544;-73
2023/01/17 11:30:51;;;;;;;16.43;5.53;;;9.30;99.90;;;;;;5033550;28;20841;-73
2023/01/17 11:33:44;;;;;;;8.37;5.27;;;8.90;99.90;;;;;;5032886;28;20414;-73
2023/01/17 11:36:19;;;;;;;6.50;3.70;;;8.50;99.90;;;;;;5032360;28;20465;-72
2023/01/17 11:38:57;;;;;;;6.73;3.70;;;8.40;99.90;;;;;;5033170;28;20440;-71
2023/01/17 11:41:26;;;;;;;6.17;4.10;;;8.20;99.90;;;;;;5032131;28;20428;-73
2023/01/17 11:43:56;;;;;;;14.87;5.20;;;8.20;99.90;;;;;;5032763;28;20436;-72
2023/01/17 11:46:23;;;;;;;9.70;4.90;;;8.20;99.90;;;;;;5033253;28;20466;-72
2023/01/17 11:48:53;;;;;;;13.13;4.67;;;8.40;99.90;;;;;;5035978;28;20490;-72
2023/01/17 11:51:25;;;;;;;8.30;5.77;;;8.30;99.90;;;;;;5032452;28;20435;-71
2023/01/17 11:53:54;;;;;;;7.40;3.83;;;8.10;99.90;;;;;;5032394;28;20411;-71
2023/01/17 11:56:31;;;;;;;21.43;7.00;;;7.80;99.90;;;;;;5032383;28;20459;-72
2023/01/17 11:59:33;;;;;;;5.17;3.47;;;7.60;99.90;;;;;;5030911;28;20957;-73
2023/01/17 12:02:36;;;;;;;4.57;4.03;;;7.40;99.90;;;;;;5032535;28;20896;-72
2023/01/17 12:05:18;;;;;;;9.37;5.43;;;7.10;99.90;;;;;;5008505;28;20460;-73
2023/01/17 12:07:52;;;;;;;9.87;4.93;;;6.90;99.90;;;;;;5032331;28;20564;-72
2023/01/17 12:10:28;;;;;;;15.50;6.10;;;6.90;99.90;;;;;;5032004;28;20974;-72
2023/01/17 12:16:00;;;;;;;4.00;2.90;;;7.10;99.90;;;;;;5032569;28;20434;-72
2023/01/17 12:18:40;;;;;;;5.13;3.70;;;7.20;99.90;;;;;;5032303;28;20474;-72
2023/01/17 12:21:19;;;;;;;5.80;4.33;;;7.10;99.90;;;;;;5032401;28;20418;-72
2023/01/17 12:24:03;;;;;;;7.83;3.87;;;7.30;99.90;;;;;;5032310;28;20404;-72
2023/01/17 12:26:40;;;;;;;6.53;3.70;;;7.70;99.90;;;;;;5035531;28;20503;-71
2023/01/17 12:29:36;;;;;;;5.40;3.70;;;7.80;99.90;;;;;;5038079;28;20457;-72
2023/01/17 12:32:46;;;;;;;9.27;4.20;;;7.30;99.90;;;;;;5032239;28;20499;-72
2023/01/17 12:35:18;;;;;;;6.33;5.20;;;7.30;99.90;;;;;;5032148;28;20433;-71
2023/01/17 12:37:49;;;;;;;5.70;4.13;;;7.00;99.90;;;;;;5031539;28;20556;-73
2023/01/17 12:40:22;;;;;;;8.37;3.73;;;7.00;99.90;;;;;;5031647;28;20531;-73
2023/01/17 12:42:54;;;;;;;10.03;3.70;;;7.00;99.90;;;;;;5032118;28;20895;-72
2023/01/17 12:45:30;;;;;;;5.63;4.47;;;7.00;99.90;;;;;;5031584;28;20436;-72
2023/01/17 12:48:04;;;;;;;7.03;3.90;;;6.70;99.90;;;;;;5030058;28;20471;-72
2023/01/17 12:50:36;;;;;;;7.53;4.13;;;6.70;99.90;;;;;;5031497;28;20449;-72
2023/01/17 12:53:12;;;;;;;8.33;4.37;;;6.90;99.90;;;;;;5031402;28;20436;-72
2023/01/17 12:55:47;;;;;;;9.67;3.97;;;6.90;99.90;;;;;;5031378;28;20440;-72
2023/01/17 12:58:20;;;;;;;8.33;3.40;;;7.30;99.90;;;;;;4996340;28;20605;-72
2023/01/17 13:00:51;;;;;;;4.60;3.20;;;7.80;99.90;;;;;;5031819;28;20525;-72
2023/01/17 13:03:29;;;;;;;5.00;3.57;;;8.10;99.90;;;;;;5031225;28;20433;-72
2023/01/17 13:05:57;;;;;;;5.57;3.77;;;8.10;99.90;;;;;;5031548;28;20517;-72
2023/01/17 13:08:33;;;;;;;12.40;4.03;;;8.20;99.90;;;;;;5037677;28;20463;-72
2023/01/17 13:11:05;;;;;;;6.00;3.20;;;8.20;99.90;;;;;;5038454;28;20443;-72
2023/01/17 13:13:34;;;;;;;9.73;5.13;;;8.00;99.90;;;;;;5035382;28;20501;-74
2023/01/17 13:16:06;;;;;;;3.97;2.43;;;8.00;99.90;;;;;;5035677;28;20424;-72
2023/01/17 13:18:38;;;;;;;6.23;2.90;;;7.70;99.90;;;;;;5035246;28;20509;-72
2023/01/17 13:21:28;;;;;;;6.50;3.50;;;7.30;99.90;;;;;;5035264;28;20528;-72
2023/01/17 13:24:27;;;;;;;7.47;3.13;;;7.30;99.90;;;;;;5035128;28;20941;-72
2023/01/17 13:27:27;;;;;;;7.40;3.97;;;7.10;99.90;;;;;;5029829;28;20688;-72
2023/01/17 13:30:10;;;;;;;5.73;3.13;;;7.10;99.90;;;;;;5035319;28;20405;-72
2023/01/17 13:33:09;;;;;;;5.70;3.70;;;7.10;99.90;;;;;;5035061;28;20858;-73
2023/01/17 13:35:44;;;;;;;7.77;3.23;;;7.30;99.90;;;;;;5032824;28;20515;-73
2023/01/17 13:38:34;;;;;;;8.30;3.10;;;7.30;99.90;;;;;;5035055;28;20489;-73
2023/01/17 13:41:09;;;;;;;3.87;3.00;;;7.40;99.90;;;;;;5035224;28;20413;-72
2023/01/17 13:43:39;;;;;;;6.57;3.17;;;7.50;99.90;;;;;;5036482;28;20454;-72
2023/01/17 13:46:07;;;;;;;7.17;3.80;;;7.60;99.90;;;;;;5034213;28;20834;-72
2023/01/17 13:48:37;;;;;;;9.40;2.80;;;7.40;99.90;;;;;;5035448;28;20547;-72
2023/01/17 13:51:06;;;;;;;4.23;2.67;;;7.50;99.90;;;;;;5040459;28;20428;-72
2023/01/17 13:53:57;;;;;;;6.50;3.33;;;7.60;99.90;;;;;;5034543;28;20480;-72
2023/01/17 13:56:31;;;;;;;8.07;3.23;;;7.50;99.90;;;;;;5034537;28;20417;-72
2023/01/17 13:59:24;;;;;;;3.40;2.73;;;7.40;99.90;;;;;;5034474;28;20501;-72
2023/01/17 14:01:53;;;;;;;6.93;3.10;;;7.40;99.90;;;;;;5019236;28;20526;-72
2023/01/17 14:04:20;;;;;;;9.97;3.30;;;7.20;99.90;;;;;;5034168;28;20509;-72
2023/01/17 14:06:54;;;;;;;5.10;3.23;;;7.10;99.90;;;;;;5034507;28;20428;-72
2023/01/17 14:09:28;;;;;;;4.40;2.87;;;7.00;99.90;;;;;;5034441;28;20483;-72
2023/01/17 14:12:02;;;;;;;4.47;2.30;;;7.00;99.90;;;;;;5034419;28;20434;-72
2023/01/17 14:14:56;;;;;;;2.50;2.07;;;6.90;99.90;;;;;;5034300;28;20955;-72
2023/01/17 14:17:55;;;;;;;8.07;2.27;;;6.80;99.90;;;;;;5034055;28;20436;-72
2023/01/17 14:20:51;;;;;;;4.67;3.37;;;6.70;99.90;;;;;;5000934;28;20945;-72
2023/01/17 14:23:43;;;;;;;3.13;2.50;;;6.70;99.90;;;;;;5034130;28;20753;-72
2023/01/17 14:26:41;;;;;;;6.90;3.10;;;6.40;99.90;;;;;;5033886;28;20495;-72
2023/01/17 14:29:45;;;;;;;4.13;2.33;;;6.30;99.90;;;;;;4988346;28;20469;-72
2023/01/17 14:32:14;;;;;;;4.87;2.27;;;6.20;99.90;;;;;;5033456;28;20907;-72
2023/01/17 14:34:43;;;;;;;7.13;3.03;;;6.10;99.90;;;;;;5014853;28;20449;-72
2023/01/17 14:37:35;;;;;;;2.77;2.57;;;6.00;99.90;;;;;;5033431;28;20473;-74
2023/01/17 14:40:15;;;;;;;5.40;2.30;;;5.90;99.90;;;;;;5033673;28;20477;-74
2023/01/17 14:42:43;;;;;;;5.83;2.60;;;6.00;99.90;;;;;;5033403;28;20940;-72
2023/01/17 14:45:19;;;;;;;6.17;2.53;;;6.00;99.90;;;;;;5033462;28;20912;-72
2023/01/17 14:47:50;;;;;;;5.73;3.90;;;5.90;99.90;;;;;;5033223;28;20496;-72
2023/01/17 14:50:23;;;;;;;12.97;3.30;;;6.00;99.90;;;;;;5034084;28;20823;-72
2023/01/17 14:53:14;;;;;;;23.40;5.50;;;6.00;99.90;;;;;;5033980;28;20507;-72
2023/01/17 14:55:56;;;;;;;12.43;5.73;;;6.00;99.90;;;;;;5033254;28;20896;-72
2023/01/17 14:58:25;;;;;;;12.13;5.33;;;6.20;99.90;;;;;;5033006;28;20468;-72
2023/01/17 15:00:55;;;;;;;3.67;3.37;;;6.20;99.90;;;;;;5034454;28;20549;-72